Time;durP1;ratioP1;P1;durP2;ratioP2;P2;SDS_P1;SDS_P2;PMS_P1;PMS_P2;Temp;Humidity;BMP_temperature;BMP_pressure;BME280_temperature;BME280_humidity;BME280_pressure;Samples;Min_cycle;Max_cycle;Signal;HPM_P1;HPM_P2
2022/04/15 00:01:09;;;;;;;7.30;6.10;;;10.80;99.90;;;;;;7395180;19;20324;-75
2022/04/15 00:03:34;;;;;;;8.27;6.63;;;10.70;99.90;;;;;;7399526;19;20650;-79
2022/04/15 00:06:00;;;;;;;6.10;5.30;;;10.70;99.90;;;;;;7398177;19;20296;-76
2022/04/15 00:08:26;;;;;;;6.53;5.67;;;10.60;99.90;;;;;;7397656;19;20843;-77
2022/04/15 00:10:51;;;;;;;7.55;5.50;;;10.80;99.90;;;;;;7397578;19;20343;-75
2022/04/15 00:13:24;;;;;;;6.22;5.30;;;10.60;99.90;;;;;;7394931;19;20320;-75
2022/04/15 00:15:50;;;;;;;6.90;5.88;;;10.50;99.90;;;;;;7395722;19;20313;-79
2022/04/15 00:18:17;;;;;;;7.30;5.93;;;10.50;99.90;;;;;;7397035;19;20311;-75
2022/04/15 00:20:42;;;;;;;5.97;5.38;;;10.50;99.90;;;;;;7397218;19;20344;-77
2022/04/15 00:23:08;;;;;;;7.93;5.55;;;10.40;99.90;;;;;;7397302;19;20463;-77
2022/04/15 00:25:33;;;;;;;7.30;5.90;;;10.40;99.90;;;;;;7397408;19;20316;-75
2022/04/15 00:27:59;;;;;;;8.30;6.00;;;10.40;99.90;;;;;;7396225;19;20312;-77
2022/04/15 00:30:25;;;;;;;7.10;5.93;;;10.30;99.90;;;;;;7392866;19;20394;-76
2022/04/15 00:32:50;;;;;;;6.07;5.47;;;10.30;99.90;;;;;;7397831;19;20329;-77
2022/04/15 00:35:16;;;;;;;7.00;5.90;;;10.20;99.90;;;;;;7397591;19;20313;-79
2022/04/15 00:37:42;;;;;;;6.18;5.55;;;10.20;99.90;;;;;;7397393;19;20340;-76
2022/04/15 00:40:10;;;;;;;9.90;5.60;;;10.10;99.90;;;;;;7394669;19;20325;-75
2022/04/15 00:42:35;;;;;;;8.20;5.68;;;10.10;99.90;;;;;;7397983;19;20309;-81
2022/04/15 00:45:02;;;;;;;6.05;5.43;;;10.00;99.90;;;;;;7396060;19;20329;-79
2022/04/15 00:47:36;;;;;;;5.75;5.25;;;10.10;99.90;;;;;;7394690;19;20872;-78
2022/04/15 00:50:03;;;;;;;5.73;5.23;;;10.00;99.90;;;;;;7394328;19;20316;-77
2022/04/15 00:52:33;;;;;;;7.05;5.07;;;10.10;99.90;;;;;;7395808;19;20325;-82
2022/04/15 00:54:59;;;;;;;7.05;5.80;;;10.00;99.90;;;;;;7394221;19;21273;-82
2022/04/15 00:57:26;;;;;;;8.60;6.07;;;10.10;99.90;;;;;;7394716;19;20308;-80
2022/04/15 00:59:52;;;;;;;6.40;5.78;;;10.10;99.90;;;;;;7393539;19;20309;-84
2022/04/15 01:02:17;;;;;;;6.82;6.15;;;10.00;99.90;;;;;;7392357;19;20417;-76
2022/04/15 01:04:44;;;;;;;7.97;6.93;;;10.10;99.90;;;;;;7395576;19;21092;-79
2022/04/15 01:07:12;;;;;;;7.93;6.93;;;10.10;99.90;;;;;;7392552;19;20344;-76
2022/04/15 01:09:42;;;;;;;8.38;7.47;;;10.10;99.90;;;;;;7392366;19;20345;-76
2022/04/15 01:12:11;;;;;;;7.85;6.80;;;10.10;99.90;;;;;;7391050;19;21862;-77
2022/04/15 01:14:38;;;;;;;8.33;6.47;;;10.10;99.90;;;;;;7393341;19;20414;-79
2022/04/15 01:17:04;;;;;;;8.70;6.93;;;10.10;99.90;;;;;;7392104;19;20321;-79
2022/04/15 01:19:29;;;;;;;11.25;7.97;;;10.10;99.90;;;;;;7397264;19;20411;-77
2022/04/15 01:21:55;;;;;;;9.88;7.22;;;10.10;99.90;;;;;;7401111;19;20324;-79
2022/04/15 01:24:20;;;;;;;9.40;7.80;;;10.10;99.90;;;;;;7401038;19;20315;-79
2022/04/15 01:26:46;;;;;;;8.23;7.28;;;10.20;99.90;;;;;;7400554;19;20320;-75
2022/04/15 01:29:12;;;;;;;8.73;7.60;;;10.20;99.90;;;;;;7401057;19;20327;-80
2022/04/15 01:31:37;;;;;;;11.25;8.63;;;10.20;99.90;;;;;;7394119;19;20361;-79
2022/04/15 01:34:03;;;;;;;14.00;9.17;;;10.30;99.90;;;;;;7400447;19;20859;-77
2022/04/15 01:36:28;;;;;;;10.77;7.93;;;10.30;99.90;;;;;;7377795;19;20337;-75
2022/04/15 01:38:58;;;;;;;10.20;8.57;;;10.30;99.90;;;;;;7401273;19;20325;-77
2022/04/15 01:41:24;;;;;;;11.70;8.60;;;10.30;99.90;;;;;;7398581;19;20875;-75
2022/04/15 01:43:49;;;;;;;12.65;9.57;;;10.30;99.90;;;;;;7400230;19;20419;-77
2022/04/15 01:46:15;;;;;;;11.48;8.77;;;10.30;99.90;;;;;;7398251;19;20296;-76
2022/04/15 01:48:41;;;;;;;12.93;9.53;;;10.30;99.90;;;;;;7400211;19;20329;-76
2022/04/15 01:51:06;;;;;;;9.07;7.93;;;10.30;99.90;;;;;;7398893;19;20317;-77
2022/04/15 01:53:32;;;;;;;9.85;8.18;;;10.40;99.90;;;;;;7399908;19;20384;-77
2022/04/15 01:55:58;;;;;;;11.65;8.95;;;10.30;99.90;;;;;;7399523;19;20372;-78
2022/04/15 01:58:26;;;;;;;10.37;8.13;;;10.30;99.90;;;;;;7400076;19;20321;-76
2022/04/15 02:00:52;;;;;;;10.93;9.00;;;10.30;99.90;;;;;;7399846;19;20321;-76
2022/04/15 02:03:17;;;;;;;10.67;8.57;;;10.30;99.90;;;;;;7400663;19;20297;-80
2022/04/15 02:05:43;;;;;;;10.27;9.00;;;10.40;99.90;;;;;;7397196;19;20416;-78
2022/04/15 02:08:08;;;;;;;11.50;8.70;;;10.20;99.90;;;;;;7379938;19;20328;-81
2022/04/15 02:10:34;;;;;;;9.73;8.43;;;10.20;99.90;;;;;;7396495;19;20316;-81
2022/04/15 02:13:00;;;;;;;9.52;8.50;;;10.20;99.90;;;;;;7398208;19;20620;-77
2022/04/15 02:15:25;;;;;;;10.30;8.40;;;10.20;99.90;;;;;;7400408;19;20301;-75
2022/04/15 02:17:51;;;;;;;9.48;8.45;;;10.40;99.90;;;;;;7395030;19;20903;-77
2022/04/15 02:20:17;;;;;;;12.10;8.60;;;10.20;99.90;;;;;;7398275;19;20831;-77
2022/04/15 02:22:42;;;;;;;9.60;8.00;;;10.10;99.90;;;;;;7397501;19;20333;-77
2022/04/15 02:25:08;;;;;;;8.87;7.97;;;10.20;99.90;;;;;;7397418;19;21226;-76
2022/04/15 02:27:34;;;;;;;11.03;8.80;;;10.10;99.90;;;;;;7397905;19;20345;-77
2022/04/15 02:30:00;;;;;;;9.48;8.57;;;10.10;99.90;;;;;;7393848;19;20352;-76
2022/04/15 02:32:26;;;;;;;10.70;8.60;;;10.10;99.90;;;;;;7395234;19;20333;-78
2022/04/15 02:34:51;;;;;;;10.18;8.45;;;10.20;99.90;;;;;;7399174;19;20337;-81
2022/04/15 02:37:17;;;;;;;11.40;9.10;;;10.30;99.90;;;;;;7397498;19;20301;-77
2022/04/15 02:39:43;;;;;;;10.70;8.30;;;10.30;99.90;;;;;;7400031;19;20337;-76
2022/04/15 02:42:09;;;;;;;10.90;9.13;;;10.30;99.90;;;;;;7398115;19;20325;-76
2022/04/15 02:44:36;;;;;;;12.00;9.13;;;10.30;99.90;;;;;;7394304;19;20329;-81
2022/04/15 02:47:01;;;;;;;9.95;8.93;;;10.20;99.90;;;;;;7397280;19;20312;-77
2022/04/15 02:49:27;;;;;;;11.60;9.13;;;10.20;99.90;;;;;;7401284;19;20308;-77
2022/04/15 02:51:53;;;;;;;10.07;7.70;;;10.20;99.90;;;;;;7398315;19;20396;-80
2022/04/15 02:54:19;;;;;;;9.82;8.80;;;10.30;99.90;;;;;;7399161;19;20309;-86
2022/04/15 02:56:44;;;;;;;11.27;8.30;;;10.30;99.90;;;;;;7399179;19;20408;-74
2022/04/15 02:59:10;;;;;;;10.10;7.85;;;10.30;99.90;;;;;;7397196;19;20345;-77
2022/04/15 03:01:36;;;;;;;11.80;8.33;;;10.30;99.90;;;;;;7399358;19;20352;-77
2022/04/15 03:04:01;;;;;;;10.93;9.80;;;10.30;99.90;;;;;;7397374;19;20904;-77
2022/04/15 03:06:27;;;;;;;10.13;8.97;;;10.30;99.90;;;;;;7389978;19;20424;-76
2022/04/15 03:08:54;;;;;;;10.27;8.82;;;10.20;99.90;;;;;;7394716;19;20332;-75
2022/04/15 03:11:19;;;;;;;10.77;9.68;;;10.20;99.90;;;;;;7396793;19;20336;-77
2022/04/15 03:13:45;;;;;;;10.27;9.10;;;10.20;99.90;;;;;;7396880;19;20305;-76
2022/04/15 03:16:11;;;;;;;12.77;10.10;;;10.20;99.90;;;;;;7394389;19;20320;-79
2022/04/15 03:18:37;;;;;;;10.80;8.70;;;10.10;99.90;;;;;;7398293;19;20328;-77
2022/04/15 03:21:02;;;;;;;12.17;9.43;;;10.10;99.90;;;;;;7394377;19;20334;-75
2022/04/15 03:23:28;;;;;;;13.25;10.40;;;10.00;99.90;;;;;;7397012;19;20333;-77
2022/04/15 03:25:54;;;;;;;11.67;9.93;;;10.00;99.90;;;;;;7395423;19;20305;-77
2022/04/15 03:28:19;;;;;;;13.13;10.40;;;10.00;99.90;;;;;;7393750;19;20328;-78
2022/04/15 03:30:45;;;;;;;12.17;10.17;;;10.00;99.90;;;;;;7393690;19;20365;-79
2022/04/15 03:33:11;;;;;;;11.35;10.07;;;10.00;99.90;;;;;;7395042;19;20388;-77
2022/04/15 03:35:36;;;;;;;12.55;10.75;;;10.00;99.90;;;;;;7395675;19;20337;-75
2022/04/15 03:38:02;;;;;;;11.17;10.07;;;10.00;99.90;;;;;;7394192;19;20317;-78
2022/04/15 03:40:27;;;;;;;11.23;10.05;;;10.00;99.90;;;;;;7394902;19;20329;-77
2022/04/15 03:42:56;;;;;;;11.63;10.00;;;10.00;99.90;;;;;;7393729;19;20367;-82
2022/04/15 03:45:22;;;;;;;11.88;10.27;;;10.00;99.90;;;;;;7390254;19;20404;-79
2022/04/15 03:47:51;;;;;;;11.67;9.10;;;10.00;99.90;;;;;;7395284;19;20348;-77
2022/04/15 03:50:17;;;;;;;10.95;9.45;;;10.00;99.90;;;;;;7394044;19;20946;-77
2022/04/15 03:52:45;;;;;;;12.07;10.18;;;10.00;99.90;;;;;;7393972;19;20353;-80
2022/04/15 03:55:12;;;;;;;11.65;9.70;;;10.10;99.90;;;;;;7393717;19;20293;-81
2022/04/15 03:57:38;;;;;;;13.43;10.75;;;10.00;99.90;;;;;;7393759;19;20851;-77
2022/04/15 04:00:08;;;;;;;12.02;10.07;;;10.00;99.90;;;;;;7390262;19;20891;-80
2022/04/15 04:02:34;;;;;;;15.23;11.23;;;9.90;99.90;;;;;;7393415;19;20333;-78
2022/04/15 04:04:59;;;;;;;12.70;10.27;;;9.90;99.90;;;;;;7392067;19;20874;-77
2022/04/15 04:07:25;;;;;;;12.57;10.88;;;9.90;99.90;;;;;;7391959;19;20408;-81
2022/04/15 04:09:50;;;;;;;10.67;9.57;;;9.90;99.90;;;;;;7394188;19;20633;-87
2022/04/15 04:12:16;;;;;;;14.07;10.73;;;9.90;99.90;;;;;;7388935;19;20332;-77
2022/04/15 04:14:42;;;;;;;14.77;10.07;;;9.80;99.90;;;;;;7392443;19;20364;-81
2022/04/15 04:17:07;;;;;;;11.30;9.80;;;9.80;99.90;;;;;;7391642;19;20367;-78
2022/04/15 04:19:33;;;;;;;12.10;10.40;;;9.90;99.90;;;;;;7391671;19;20321;-77
2022/04/15 04:21:58;;;;;;;12.02;10.27;;;9.80;99.90;;;;;;7391061;19;20323;-80
2022/04/15 04:24:24;;;;;;;15.07;10.87;;;9.70;99.90;;;;;;7391371;19;20372;-78
2022/04/15 04:26:50;;;;;;;12.65;10.50;;;9.80;99.90;;;;;;7391020;19;20365;-75
2022/04/15 04:29:16;;;;;;;13.40;9.83;;;9.80;99.90;;;;;;7396556;19;20822;-78
2022/04/15 04:31:42;;;;;;;12.38;10.38;;;9.80;99.90;;;;;;7389636;19;20343;-79
2022/04/15 04:34:10;;;;;;;12.50;9.43;;;9.80;99.90;;;;;;7383579;19;20325;-80
2022/04/15 04:36:36;;;;;;;10.63;9.38;;;9.80;99.90;;;;;;7391289;19;20340;-83
2022/04/15 04:39:02;;;;;;;11.80;9.20;;;9.80;99.90;;;;;;7381041;19;21398;-83
2022/04/15 04:41:27;;;;;;;11.82;8.70;;;9.70;99.90;;;;;;7380588;19;20373;-80
2022/04/15 04:43:53;;;;;;;9.17;8.10;;;9.60;99.90;;;;;;7384963;19;20684;-79
2022/04/15 04:46:19;;;;;;;9.20;7.50;;;9.60;99.90;;;;;;7390958;19;20324;-85
2022/04/15 04:48:45;;;;;;;9.27;8.20;;;9.50;99.90;;;;;;7389039;19;20340;-83
2022/04/15 04:51:12;;;;;;;10.25;8.13;;;9.40;99.90;;;;;;7363323;19;20406;-79
2022/04/15 04:53:57;;;;;;;8.77;7.87;;;9.40;99.90;;;;;;7370991;19;20304;-77
2022/04/15 04:56:53;;;;;;;11.60;8.57;;;9.30;99.90;;;;;;7331387;19;20317;-76
2022/04/15 05:00:27;;;;;;;9.77;8.30;;;9.20;99.90;;;;;;7397811;19;20439;-73
2022/04/15 05:03:54;;;;;;;9.05;8.00;;;9.10;99.90;;;;;;7345071;19;20362;-74
2022/04/15 05:10:22;;;;;;;10.07;8.10;;;9.20;99.90;;;;;;7387913;19;20327;-77
2022/04/15 05:12:48;;;;;;;11.57;8.55;;;9.10;99.90;;;;;;7399044;19;20323;-77
2022/04/15 05:15:13;;;;;;;10.27;8.37;;;9.10;99.90;;;;;;7400554;19;20317;-76
2022/04/15 05:17:39;;;;;;;10.55;8.35;;;9.10;99.90;;;;;;7406469;19;20321;-76
2022/04/15 05:20:06;;;;;;;11.27;8.83;;;9.00;99.90;;;;;;7404484;19;20335;-76
2022/04/15 05:22:32;;;;;;;9.60;8.27;;;9.00;99.90;;;;;;7399350;19;20320;-76
2022/04/15 05:24:58;;;;;;;9.20;8.20;;;9.00;99.90;;;;;;7400391;19;20979;-76
2022/04/15 05:27:23;;;;;;;10.13;8.30;;;8.90;99.90;;;;;;7405143;19;20328;-77
2022/04/15 05:29:49;;;;;;;9.80;7.70;;;8.90;99.90;;;;;;7405528;19;20344;-76
2022/04/15 05:32:15;;;;;;;7.80;6.77;;;9.00;99.90;;;;;;7410138;19;20330;-75
2022/04/15 05:34:42;;;;;;;6.57;5.70;;;8.90;99.90;;;;;;7407364;19;20730;-77
2022/04/15 05:37:08;;;;;;;5.97;5.38;;;8.80;99.90;;;;;;7388019;19;20350;-77
2022/04/15 05:39:34;;;;;;;6.50;5.75;;;8.80;99.90;;;;;;7415877;19;20296;-76
2022/04/15 05:42:00;;;;;;;5.00;4.57;;;8.80;99.90;;;;;;7409683;19;20331;-76
2022/04/15 05:44:25;;;;;;;5.87;4.80;;;8.70;99.90;;;;;;7420441;19;20457;-77
2022/04/15 05:46:51;;;;;;;5.63;4.90;;;8.80;99.90;;;;;;7417608;19;20328;-76
2022/04/15 05:49:18;;;;;;;5.30;4.77;;;8.80;99.90;;;;;;7414139;19;20333;-76
2022/04/15 05:51:45;;;;;;;5.93;4.97;;;8.80;99.90;;;;;;7411598;19;20706;-77
2022/04/15 05:54:11;;;;;;;5.18;4.60;;;8.80;99.90;;;;;;7413751;19;20304;-76
2022/04/15 05:56:37;;;;;;;5.72;4.68;;;8.80;99.90;;;;;;7410926;19;20961;-77
2022/04/15 05:59:03;;;;;;;6.50;4.82;;;8.80;99.90;;;;;;7413952;19;20304;-77
2022/04/15 06:01:28;;;;;;;5.15;4.75;;;8.80;99.90;;;;;;7406567;19;20336;-77
2022/04/15 06:03:54;;;;;;;5.70;4.65;;;8.80;99.90;;;;;;7404625;19;20325;-77
2022/04/15 06:06:20;;;;;;;4.97;4.33;;;8.70;99.90;;;;;;7401773;19;20394;-76
2022/04/15 06:08:45;;;;;;;4.85;4.40;;;8.80;99.90;;;;;;7396132;19;20340;-76
2022/04/15 06:11:11;;;;;;;4.90;4.33;;;8.80;99.90;;;;;;7398155;19;20320;-76
2022/04/15 06:13:41;;;;;;;5.13;4.63;;;8.80;99.90;;;;;;7405044;19;20356;-76
2022/04/15 06:16:09;;;;;;;5.05;4.55;;;8.70;99.90;;;;;;7409979;19;20407;-76
2022/04/15 06:18:36;;;;;;;4.90;4.43;;;8.80;99.90;;;;;;7410187;19;20820;-78
2022/04/15 06:21:04;;;;;;;5.40;4.55;;;8.70;99.90;;;;;;7400556;19;20340;-77
2022/04/15 06:23:30;;;;;;;5.97;4.20;;;8.80;99.90;;;;;;7396691;19;20337;-76
2022/04/15 06:25:56;;;;;;;6.33;3.90;;;9.00;99.90;;;;;;7407510;19;20369;-76
2022/04/15 06:28:21;;;;;;;4.78;3.95;;;8.90;99.90;;;;;;7403933;19;20432;-76
2022/04/15 06:30:49;;;;;;;4.00;3.67;;;9.00;99.90;;;;;;7389746;19;20333;-77
2022/04/15 06:33:15;;;;;;;4.28;3.60;;;9.10;99.90;;;;;;7402855;19;20340;-82
2022/04/15 06:35:42;;;;;;;3.65;3.35;;;9.30;99.90;;;;;;7378608;19;20304;-78
2022/04/15 06:38:08;;;;;;;3.53;3.23;;;9.30;99.90;;;;;;7412485;19;20988;-77
2022/04/15 06:40:38;;;;;;;3.93;3.53;;;9.20;99.90;;;;;;7400200;19;20316;-77
2022/04/15 06:43:04;;;;;;;3.67;3.33;;;9.20;99.90;;;;;;7394192;19;20403;-77
2022/04/15 06:45:30;;;;;;;4.97;3.20;;;9.20;99.90;;;;;;7405327;19;20380;-77
2022/04/15 06:47:56;;;;;;;4.20;3.20;;;9.40;99.90;;;;;;7407693;19;20337;-76
2022/04/15 06:50:21;;;;;;;3.83;3.37;;;9.30;99.90;;;;;;7397326;19;20351;-77
2022/04/15 06:52:47;;;;;;;3.40;3.10;;;9.60;99.90;;;;;;7392737;19;20364;-78
2022/04/15 06:55:13;;;;;;;3.20;2.90;;;9.50;99.90;;;;;;7406548;19;20316;-77
2022/04/15 06:57:38;;;;;;;3.20;2.90;;;9.40;99.90;;;;;;7400527;19;20391;-80
2022/04/15 07:00:05;;;;;;;3.28;2.97;;;9.50;99.90;;;;;;7401884;19;20341;-78
2022/04/15 07:02:31;;;;;;;3.40;3.10;;;9.60;99.90;;;;;;7392460;19;20838;-77
2022/04/15 07:04:56;;;;;;;3.90;3.50;;;9.70;99.90;;;;;;7390569;19;20360;-76
2022/04/15 07:07:22;;;;;;;4.03;3.23;;;9.80;99.90;;;;;;7395951;19;20337;-77
2022/04/15 07:09:50;;;;;;;3.95;3.20;;;9.90;99.90;;;;;;7390697;19;20405;-77
2022/04/15 07:12:17;;;;;;;4.07;2.97;;;10.00;99.90;;;;;;7389187;19;20633;-77
2022/04/15 07:14:48;;;;;;;3.42;3.00;;;10.10;99.90;;;;;;7400071;19;20332;-77
2022/04/15 07:17:26;;;;;;;3.95;3.10;;;10.00;99.90;;;;;;7191197;19;2004183;-78
2022/04/15 07:20:04;;;;;;;5.10;3.40;;;10.00;99.90;;;;;;7298794;19;2004193;-79
2022/04/15 07:22:29;;;;;;;4.25;3.42;;;9.90;99.90;;;;;;7375276;19;20824;-79
2022/04/15 07:24:55;;;;;;;4.53;3.50;;;9.90;99.90;;;;;;7392910;19;20366;-78
2022/04/15 07:27:20;;;;;;;3.85;3.45;;;9.80;99.90;;;;;;7392181;19;20386;-81
2022/04/15 07:29:47;;;;;;;4.50;3.30;;;9.80;99.90;;;;;;7400221;19;20337;-79
2022/04/15 07:32:19;;;;;;;3.60;3.30;;;9.70;99.90;;;;;;7401560;19;20335;-77
2022/04/15 07:34:45;;;;;;;4.88;3.35;;;9.90;99.90;;;;;;7403948;19;20329;-79
2022/04/15 07:37:11;;;;;;;5.23;3.40;;;10.10;99.90;;;;;;7383568;19;20342;-79
2022/04/15 07:39:37;;;;;;;3.72;3.22;;;10.10;99.90;;;;;;7402917;19;20543;-78
2022/04/15 07:42:03;;;;;;;4.57;3.70;;;10.20;99.90;;;;;;7395503;19;20308;-78
2022/04/15 07:44:30;;;;;;;3.73;3.17;;;10.20;99.90;;;;;;7402082;19;20358;-78
2022/04/15 07:46:55;;;;;;;3.72;3.28;;;10.30;99.90;;;;;;7372552;19;20348;-80
2022/04/15 07:49:21;;;;;;;4.50;3.80;;;10.30;99.90;;;;;;7393513;19;20338;-77
2022/04/15 07:51:48;;;;;;;3.83;3.38;;;10.40;99.90;;;;;;7399310;19;20348;-80
2022/04/15 07:54:14;;;;;;;4.57;3.40;;;10.40;99.90;;;;;;7410936;19;20324;-79
2022/04/15 07:56:40;;;;;;;4.40;3.77;;;10.60;99.90;;;;;;7406034;19;20340;-77
2022/04/15 07:59:05;;;;;;;4.45;3.75;;;10.30;99.90;;;;;;7411860;19;20458;-78
2022/04/15 08:01:31;;;;;;;4.03;3.33;;;10.40;99.90;;;;;;7409751;19;20357;-76
2022/04/15 08:03:57;;;;;;;4.57;3.58;;;10.50;99.90;;;;;;7410659;19;20312;-78
2022/04/15 08:06:24;;;;;;;4.60;3.78;;;10.50;99.90;;;;;;7368595;19;20335;-78
2022/04/15 08:08:52;;;;;;;3.90;3.47;;;10.30;99.90;;;;;;7322172;19;20332;-79
2022/04/15 08:11:18;;;;;;;3.97;3.33;;;10.20;99.90;;;;;;7400412;19;20317;-78
2022/04/15 08:13:43;;;;;;;4.33;3.80;;;10.30;99.90;;;;;;7401313;19;20381;-79
2022/04/15 08:16:11;;;;;;;3.75;3.45;;;10.50;99.90;;;;;;7369428;19;20353;-78
2022/04/15 08:18:36;;;;;;;3.40;3.10;;;10.10;99.90;;;;;;7385689;19;20725;-81
2022/04/15 08:21:02;;;;;;;4.28;3.88;;;10.20;99.90;;;;;;7391574;19;20341;-78
2022/04/15 08:23:27;;;;;;;4.10;3.67;;;10.00;99.90;;;;;;7395285;19;20301;-80
2022/04/15 08:25:53;;;;;;;4.60;3.93;;;10.00;99.90;;;;;;7395939;19;20459;-78
2022/04/15 08:28:19;;;;;;;3.93;3.57;;;10.00;99.90;;;;;;7401865;19;20313;-79
2022/04/15 08:30:45;;;;;;;4.15;3.75;;;10.40;99.90;;;;;;7393784;19;20336;-77
2022/04/15 08:33:11;;;;;;;4.57;3.53;;;10.30;99.90;;;;;;7399300;19;20340;-77
2022/04/15 08:35:38;;;;;;;4.00;3.57;;;10.40;99.90;;;;;;7410445;19;20301;-78
2022/04/15 08:38:05;;;;;;;4.30;3.90;;;10.40;99.90;;;;;;7405704;19;20636;-78
2022/04/15 08:40:35;;;;;;;5.50;3.55;;;10.40;99.90;;;;;;7403751;19;20324;-79
2022/04/15 08:43:02;;;;;;;4.05;3.63;;;10.30;99.90;;;;;;7389016;19;20337;-78
2022/04/15 08:45:28;;;;;;;4.10;3.40;;;10.20;99.90;;;;;;7391929;19;20304;-79
2022/04/15 08:47:59;;;;;;;5.00;3.90;;;10.40;99.90;;;;;;7377444;19;20369;-79
2022/04/15 08:50:26;;;;;;;5.37;4.40;;;10.30;99.90;;;;;;7358600;19;20345;-72
2022/04/15 08:52:55;;;;;;;5.22;4.22;;;10.10;99.90;;;;;;7368470;19;20423;-74
2022/04/15 08:55:21;;;;;;;5.32;4.00;;;10.20;99.90;;;;;;7372006;19;20342;-74
2022/04/15 08:57:49;;;;;;;5.13;4.07;;;10.10;99.90;;;;;;7375184;19;20380;-81
2022/04/15 09:00:15;;;;;;;4.40;3.53;;;10.20;99.90;;;;;;7375579;19;20330;-75
2022/04/15 09:02:41;;;;;;;4.05;3.65;;;10.40;99.90;;;;;;7370555;19;20341;-76
2022/04/15 09:05:07;;;;;;;4.13;3.60;;;10.50;99.90;;;;;;7373390;19;20361;-75
2022/04/15 09:07:35;;;;;;;4.15;3.72;;;10.40;99.90;;;;;;7372698;19;20361;-74
2022/04/15 09:10:02;;;;;;;4.30;3.90;;;10.40;99.90;;;;;;7363091;19;20405;-78
2022/04/15 09:12:29;;;;;;;4.07;3.60;;;10.40;99.90;;;;;;7371754;19;20336;-72
2022/04/15 09:14:58;;;;;;;6.53;4.57;;;10.40;99.90;;;;;;7368542;19;20699;-80
2022/04/15 09:17:26;;;;;;;4.50;4.10;;;10.50;99.90;;;;;;7371632;19;20345;-75
2022/04/15 09:19:52;;;;;;;4.18;3.70;;;10.70;99.90;;;;;;7373411;19;20726;-74
2022/04/15 09:22:18;;;;;;;4.65;4.13;;;10.50;99.90;;;;;;7369406;19;20365;-75
2022/04/15 09:24:44;;;;;;;4.73;4.30;;;10.40;99.90;;;;;;7370103;19;20711;-76
2022/04/15 09:27:09;;;;;;;4.53;3.63;;;10.30;99.90;;;;;;7370187;19;20353;-76
2022/04/15 09:29:36;;;;;;;4.27;3.87;;;10.30;99.90;;;;;;7374822;19;20676;-75
2022/04/15 09:32:07;;;;;;;5.38;3.97;;;10.30;99.90;;;;;;7368009;19;20725;-69
2022/04/15 09:34:33;;;;;;;4.35;3.92;;;10.30;99.90;;;;;;6065033;19;10001135;-74
2022/04/15 09:36:58;;;;;;;4.50;4.10;;;10.50;99.90;;;;;;7368226;19;20743;-75
2022/04/15 09:39:24;;;;;;;4.00;3.60;;;10.40;99.90;;;;;;7369334;19;20369;-70
2022/04/15 09:41:51;;;;;;;3.87;3.47;;;10.60;99.90;;;;;;7374657;19;20348;-75
2022/04/15 09:44:16;;;;;;;4.43;3.83;;;10.70;99.90;;;;;;7375075;19;20313;-76
2022/04/15 09:46:44;;;;;;;5.90;3.90;;;10.80;99.90;;;;;;7374012;19;20340;-79
2022/04/15 09:49:10;;;;;;;5.50;3.97;;;10.70;99.90;;;;;;7379007;19;20336;-78
2022/04/15 09:51:39;;;;;;;4.30;3.60;;;10.50;99.90;;;;;;7376267;19;20698;-71
2022/04/15 09:54:06;;;;;;;3.92;3.50;;;10.30;99.90;;;;;;7379019;19;21188;-75
2022/04/15 09:56:35;;;;;;;3.75;3.35;;;10.40;99.90;;;;;;7375543;19;21046;-75
2022/04/15 09:59:08;;;;;;;3.20;2.90;;;10.50;99.90;;;;;;7378256;19;20308;-79
2022/04/15 10:01:35;;;;;;;3.42;3.13;;;10.50;99.90;;;;;;7376170;19;20312;-75
2022/04/15 10:04:01;;;;;;;4.70;2.97;;;10.30;99.90;;;;;;7378832;19;20339;-74
2022/04/15 10:06:27;;;;;;;3.65;3.35;;;10.30;99.90;;;;;;7375570;19;20337;-71
2022/04/15 10:08:53;;;;;;;3.47;3.17;;;10.40;99.90;;;;;;7375677;19;20367;-74
2022/04/15 10:11:19;;;;;;;3.20;3.00;;;10.40;99.90;;;;;;7373544;19;20358;-70
2022/04/15 10:13:45;;;;;;;5.18;3.60;;;10.30;99.90;;;;;;7378148;19;20340;-76
2022/04/15 10:16:11;;;;;;;4.90;3.00;;;10.30;99.90;;;;;;7375911;19;20361;-73
2022/04/15 10:18:37;;;;;;;3.15;2.85;;;10.10;99.90;;;;;;7373091;19;20336;-78
2022/04/15 10:21:04;;;;;;;4.45;3.08;;;10.00;99.90;;;;;;7374687;19;20710;-82
2022/04/15 10:23:29;;;;;;;4.05;3.38;;;10.00;99.90;;;;;;7376718;19;20920;-71
2022/04/15 10:25:55;;;;;;;3.50;3.20;;;9.90;99.90;;;;;;7375542;19;20369;-78
2022/04/15 10:28:37;;;;;;;3.78;3.28;;;10.00;99.90;;;;;;7374022;19;20321;-73
2022/04/15 10:31:16;;;;;;;5.10;3.30;;;9.80;99.90;;;;;;7274479;19;2004613;-73
2022/04/15 10:33:49;;;;;;;4.80;3.75;;;9.80;99.90;;;;;;7277325;19;2004611;-74
2022/04/15 10:36:23;;;;;;;3.13;2.83;;;9.90;99.90;;;;;;7377078;19;20645;-74
2022/04/15 10:39:07;;;;;;;3.70;3.33;;;10.10;99.90;;;;;;7376655;19;20740;-77
2022/04/15 10:41:41;;;;;;;4.82;3.33;;;10.30;99.90;;;;;;7273140;19;2004470;-74
2022/04/15 10:44:27;;;;;;;4.13;3.30;;;10.40;99.90;;;;;;7380819;19;20778;-73
2022/04/15 10:46:56;;;;;;;3.58;3.28;;;10.40;99.90;;;;;;7270816;19;2004369;-74
2022/04/15 10:49:23;;;;;;;3.50;3.10;;;10.20;99.90;;;;;;7378963;19;20308;-73
2022/04/15 10:51:57;;;;;;;4.00;3.30;;;10.20;99.90;;;;;;7371392;19;20908;-69
2022/04/15 10:54:29;;;;;;;3.30;3.00;;;10.20;99.90;;;;;;7377091;19;20350;-74
2022/04/15 10:57:05;;;;;;;4.97;3.20;;;10.30;99.90;;;;;;7355965;19;20333;-68
2022/04/15 11:02:20;;;;;;;3.33;2.95;;;10.20;99.90;;;;;;7370219;19;20348;-73
2022/04/15 11:04:49;;;;;;;4.18;3.38;;;10.30;99.90;;;;;;7374831;19;21132;-71
2022/04/15 11:07:26;;;;;;;3.40;3.10;;;10.30;99.90;;;;;;7378465;19;20860;-71
2022/04/15 11:09:52;;;;;;;4.05;3.53;;;10.30;99.90;;;;;;7379196;19;20344;-71
2022/04/15 11:12:42;;;;;;;3.40;3.10;;;10.20;99.90;;;;;;7377425;19;20432;-75
2022/04/15 11:15:08;;;;;;;4.07;3.42;;;10.10;99.90;;;;;;7275411;19;2004499;-71
2022/04/15 11:17:41;;;;;;;3.50;3.20;;;10.10;99.90;;;;;;7376750;19;20677;-72
2022/04/15 11:20:10;;;;;;;3.88;3.13;;;9.90;99.90;;;;;;7377071;19;21179;-70
2022/04/15 11:22:39;;;;;;;3.60;3.30;;;9.90;99.90;;;;;;7347385;19;20357;-74
2022/04/15 11:25:07;;;;;;;3.10;2.88;;;9.70;99.90;;;;;;7375324;19;20358;-76
2022/04/15 11:27:34;;;;;;;4.35;3.58;;;9.90;99.90;;;;;;7375727;19;20352;-71
2022/04/15 11:30:04;;;;;;;3.88;3.47;;;9.80;99.90;;;;;;7376138;19;20341;-74
2022/04/15 11:32:30;;;;;;;3.40;3.10;;;9.90;99.90;;;;;;7377421;19;20694;-72
2022/04/15 11:34:56;;;;;;;3.50;3.20;;;9.90;99.90;;;;;;7376070;19;20416;-76
2022/04/15 11:37:22;;;;;;;4.70;3.40;;;10.00;99.90;;;;;;7377147;19;20321;-79
2022/04/15 11:39:47;;;;;;;3.13;2.92;;;10.00;99.90;;;;;;7376998;19;20352;-79
2022/04/15 11:42:13;;;;;;;3.90;3.08;;;9.90;99.90;;;;;;7374051;19;20369;-74
2022/04/15 11:44:39;;;;;;;3.37;3.07;;;9.80;99.90;;;;;;7372817;19;20348;-74
2022/04/15 11:47:18;;;;;;;3.10;2.90;;;9.80;99.90;;;;;;7376687;19;20316;-72
2022/04/15 11:49:45;;;;;;;3.47;3.17;;;9.70;99.90;;;;;;7376208;19;20333;-72
2022/04/15 11:52:11;;;;;;;4.07;3.63;;;9.60;99.90;;;;;;7373029;19;20435;-73
2022/04/15 11:54:40;;;;;;;3.70;3.40;;;9.40;99.90;;;;;;7376175;19;20337;-73
2022/04/15 11:57:06;;;;;;;3.97;3.67;;;9.50;99.90;;;;;;7377164;19;20320;-71
2022/04/15 11:59:44;;;;;;;4.47;3.50;;;9.50;99.90;;;;;;7378145;19;20748;-71
2022/04/15 12:02:12;;;;;;;3.92;3.55;;;9.30;99.90;;;;;;7372818;19;20357;-75
2022/04/15 12:04:54;;;;;;;4.18;3.58;;;9.20;99.90;;;;;;7374774;19;20944;-76
2022/04/15 12:07:20;;;;;;;4.13;3.72;;;9.20;99.90;;;;;;7373745;19;20321;-74
2022/04/15 12:09:46;;;;;;;3.83;3.50;;;9.10;99.90;;;;;;7376859;19;20324;-75
2022/04/15 12:12:12;;;;;;;4.60;3.87;;;9.20;99.90;;;;;;7375801;19;20356;-72
2022/04/15 12:14:39;;;;;;;4.00;3.60;;;9.30;99.90;;;;;;7375145;19;20335;-78
2022/04/15 12:17:09;;;;;;;4.18;3.78;;;9.40;99.90;;;;;;7373599;19;20337;-80
2022/04/15 12:19:38;;;;;;;4.32;3.92;;;9.40;99.90;;;;;;7376371;19;20896;-76
2022/04/15 12:22:04;;;;;;;4.22;3.67;;;9.30;99.90;;;;;;7375707;19;20369;-81
2022/04/15 12:24:30;;;;;;;4.75;4.10;;;9.20;99.90;;;;;;7375846;19;20317;-74
2022/04/15 12:26:59;;;;;;;5.20;4.22;;;9.30;99.90;;;;;;7366151;19;21518;-69
2022/04/15 12:32:22;;;;;;;4.55;4.10;;;9.20;99.90;;;;;;7369801;19;20345;-78
2022/04/15 12:34:54;;;;;;;4.55;4.15;;;9.20;99.90;;;;;;7373453;19;20363;-78
2022/04/15 12:37:35;;;;;;;4.10;3.63;;;9.10;99.90;;;;;;7369878;19;20396;-76
2022/04/15 12:40:07;;;;;;;4.63;4.20;;;9.10;99.90;;;;;;7376171;19;20357;-74
2022/04/15 12:42:34;;;;;;;4.35;3.95;;;9.10;99.90;;;;;;7375147;19;21012;-74
2022/04/15 12:45:00;;;;;;;5.07;4.00;;;9.10;99.90;;;;;;7375796;19;21052;-69
2022/04/15 12:47:28;;;;;;;4.50;4.10;;;9.00;99.90;;;;;;7373541;19;20978;-70
2022/04/15 12:50:04;;;;;;;4.30;3.88;;;9.10;99.90;;;;;;7369128;19;20420;-74
2022/04/15 12:52:33;;;;;;;4.13;3.80;;;9.10;99.90;;;;;;7370160;19;20906;-75
2022/04/15 12:55:05;;;;;;;3.83;3.50;;;9.20;99.90;;;;;;7361824;19;20379;-80
2022/04/15 12:57:36;;;;;;;4.50;4.10;;;9.20;99.90;;;;;;7359948;19;20891;-69
2022/04/15 13:00:04;;;;;;;4.30;3.90;;;9.30;99.90;;;;;;7366795;19;20363;-68